sensor_id;sensor_type;location;lat;lon;timestamp;pressure;altitude;pressure_sealevel;temperature;humidity
39141;BME280;24875;48.436;10.298;2023-01-26T00:01:17;96699.81;;;1.80;100.00
39141;BME280;24875;48.436;10.298;2023-01-26T00:03:44;96705.09;;;1.67;100.00
39141;BME280;24875;48.436;10.298;2023-01-26T00:06:13;96701.16;;;1.62;100.00
39141;BME280;24875;48.436;10.298;2023-01-26T00:08:42;96692.22;;;1.77;100.00
39141;BME280;24875;48.436;10.298;2023-01-26T00:11:10;96701.69;;;1.78;100.00
39141;BME280;24875;48.436;10.298;2023-01-26T00:13:37;96697.50;;;1.64;100.00
39141;BME280;24875;48.436;10.298;2023-01-26T00:16:09;96695.88;;;1.74;100.00
39141;BME280;24875;48.436;10.298;2023-01-26T00:18:36;96705.09;;;1.78;100.00
39141;BME280;24875;48.436;10.298;2023-01-26T00:21:03;96702.63;;;1.77;100.00
39141;BME280;24875;48.436;10.298;2023-01-26T00:23:31;96695.81;;;1.86;100.00
39141;BME280;24875;48.436;10.298;2023-01-26T00:25:58;96695.00;;;1.86;100.00
39141;BME280;24875;48.436;10.298;2023-01-26T00:28:26;96699.34;;;1.85;100.00
39141;BME280;24875;48.436;10.298;2023-01-26T00:30:52;96690.97;;;1.82;100.00
39141;BME280;24875;48.436;10.298;2023-01-26T00:33:20;96689.75;;;1.75;100.00
39141;BME280;24875;48.436;10.298;2023-01-26T00:35:53;96687.16;;;1.75;100.00
39141;BME280;24875;48.436;10.298;2023-01-26T00:38:19;96696.13;;;1.71;100.00
39141;BME280;24875;48.436;10.298;2023-01-26T00:40:46;96680.72;;;1.57;100.00
39141;BME280;24875;48.436;10.298;2023-01-26T00:43:12;96682.00;;;1.28;100.00
39141;BME280;24875;48.436;10.298;2023-01-26T00:45:39;96680.88;;;1.43;100.00
39141;BME280;24875;48.436;10.298;2023-01-26T00:48:06;96676.19;;;1.48;100.00
39141;BME280;24875;48.436;10.298;2023-01-26T00:50:34;96677.13;;;1.47;100.00
39141;BME280;24875;48.436;10.298;2023-01-26T00:53:00;96672.59;;;1.38;100.00
39141;BME280;24875;48.436;10.298;2023-01-26T00:55:27;96673.91;;;1.44;100.00
39141;BME280;24875;48.436;10.298;2023-01-26T00:57:56;96669.06;;;1.39;100.00
39141;BME280;24875;48.436;10.298;2023-01-26T01:00:23;96670.84;;;1.39;100.00
39141;BME280;24875;48.436;10.298;2023-01-26T01:02:49;96669.50;;;1.33;100.00
39141;BME280;24875;48.436;10.298;2023-01-26T01:05:16;96672.84;;;1.35;100.00
39141;BME280;24875;48.436;10.298;2023-01-26T01:07:43;96668.41;;;1.48;100.00
39141;BME280;24875;48.436;10.298;2023-01-26T01:10:10;96672.00;;;1.35;100.00
39141;BME280;24875;48.436;10.298;2023-01-26T01:12:36;96661.56;;;1.47;100.00
39141;BME280;24875;48.436;10.298;2023-01-26T01:15:04;96652.66;;;1.62;100.00
39141;BME280;24875;48.436;10.298;2023-01-26T01:17:30;96649.22;;;1.62;100.00
39141;BME280;24875;48.436;10.298;2023-01-26T01:19:57;96655.94;;;1.64;100.00
39141;BME280;24875;48.436;10.298;2023-01-26T01:22:23;96656.91;;;1.63;100.00
39141;BME280;24875;48.436;10.298;2023-01-26T01:24:51;96650.78;;;1.75;100.00
39141;BME280;24875;48.436;10.298;2023-01-26T01:27:18;96646.59;;;1.51;100.00
39141;BME280;24875;48.436;10.298;2023-01-26T01:29:44;96642.69;;;1.56;100.00
39141;BME280;24875;48.436;10.298;2023-01-26T01:32:11;96633.41;;;1.30;100.00
39141;BME280;24875;48.436;10.298;2023-01-26T01:34:37;96635.09;;;1.42;100.00
39141;BME280;24875;48.436;10.298;2023-01-26T01:37:04;96636.06;;;1.41;100.00
39141;BME280;24875;48.436;10.298;2023-01-26T01:39:30;96633.91;;;1.46;100.00
39141;BME280;24875;48.436;10.298;2023-01-26T01:41:58;96628.97;;;1.43;100.00
39141;BME280;24875;48.436;10.298;2023-01-26T01:44:24;96631.84;;;1.28;100.00
39141;BME280;24875;48.436;10.298;2023-01-26T01:46:54;96622.47;;;1.49;100.00
39141;BME280;24875;48.436;10.298;2023-01-26T01:49:25;96622.47;;;1.49;100.00
39141;BME280;24875;48.436;10.298;2023-01-26T01:51:55;96618.34;;;1.46;100.00
39141;BME280;24875;48.436;10.298;2023-01-26T01:54:27;96615.38;;;1.40;100.00
39141;BME280;24875;48.436;10.298;2023-01-26T01:57:01;96619.31;;;1.22;100.00
39141;BME280;24875;48.436;10.298;2023-01-26T01:59:29;96601.19;;;1.33;100.00
39141;BME280;24875;48.436;10.298;2023-01-26T02:01:56;96597.31;;;1.27;100.00
39141;BME280;24875;48.436;10.298;2023-01-26T02:04:23;96597.78;;;1.32;100.00
39141;BME280;24875;48.436;10.298;2023-01-26T02:06:52;96596.25;;;1.41;100.00
39141;BME280;24875;48.436;10.298;2023-01-26T02:09:25;96586.13;;;1.38;100.00
39141;BME280;24875;48.436;10.298;2023-01-26T02:12:13;96588.25;;;1.44;100.00
39141;BME280;24875;48.436;10.298;2023-01-26T02:14:43;96583.97;;;1.32;100.00
39141;BME280;24875;48.436;10.298;2023-01-26T02:17:09;96585.66;;;1.44;100.00
39141;BME280;24875;48.436;10.298;2023-01-26T02:19:43;96572.81;;;1.53;100.00
39141;BME280;24875;48.436;10.298;2023-01-26T02:22:19;96583.69;;;1.58;100.00
39141;BME280;24875;48.436;10.298;2023-01-26T02:24:52;96572.38;;;1.59;100.00
39141;BME280;24875;48.436;10.298;2023-01-26T02:27:23;96583.22;;;1.53;100.00
39141;BME280;24875;48.436;10.298;2023-01-26T02:29:49;96578.03;;;1.53;100.00
39141;BME280;24875;48.436;10.298;2023-01-26T02:32:16;96575.06;;;1.58;100.00
39141;BME280;24875;48.436;10.298;2023-01-26T02:34:43;96577.31;;;1.62;100.00
39141;BME280;24875;48.436;10.298;2023-01-26T02:37:13;96572.94;;;1.63;100.00
39141;BME280;24875;48.436;10.298;2023-01-26T02:39:43;96573.78;;;1.74;100.00
39141;BME280;24875;48.436;10.298;2023-01-26T02:42:12;96576.03;;;1.57;100.00
39141;BME280;24875;48.436;10.298;2023-01-26T02:44:57;96572.75;;;1.66;100.00
39141;BME280;24875;48.436;10.298;2023-01-26T02:47:24;96569.16;;;1.67;100.00
39141;BME280;24875;48.436;10.298;2023-01-26T02:49:50;96570.72;;;1.69;100.00
39141;BME280;24875;48.436;10.298;2023-01-26T02:52:18;96563.66;;;1.71;100.00
39141;BME280;24875;48.436;10.298;2023-01-26T02:54:45;96566.94;;;1.73;100.00
39141;BME280;24875;48.436;10.298;2023-01-26T02:57:29;96566.00;;;1.74;100.00
39141;BME280;24875;48.436;10.298;2023-01-26T02:59:57;96563.25;;;1.54;100.00
39141;BME280;24875;48.436;10.298;2023-01-26T03:02:24;96557.25;;;1.53;100.00
39141;BME280;24875;48.436;10.298;2023-01-26T03:04:50;96548.25;;;1.46;100.00
39141;BME280;24875;48.436;10.298;2023-01-26T03:07:17;96551.91;;;1.44;100.00
39141;BME280;24875;48.436;10.298;2023-01-26T03:09:43;96547.09;;;1.50;100.00
39141;BME280;24875;48.436;10.298;2023-01-26T03:12:10;96547.22;;;1.60;100.00
39141;BME280;24875;48.436;10.298;2023-01-26T03:14:37;96541.22;;;1.70;100.00
39141;BME280;24875;48.436;10.298;2023-01-26T03:17:05;96541.81;;;1.84;100.00
39141;BME280;24875;48.436;10.298;2023-01-26T03:19:31;96541.44;;;1.78;100.00
39141;BME280;24875;48.436;10.298;2023-01-26T03:22:15;96541.94;;;1.83;100.00
39141;BME280;24875;48.436;10.298;2023-01-26T03:24:59;96536.00;;;1.70;100.00
39141;BME280;24875;48.436;10.298;2023-01-26T03:27:44;96534.72;;;1.86;100.00
39141;BME280;24875;48.436;10.298;2023-01-26T03:30:13;96525.41;;;1.84;100.00
39141;BME280;24875;48.436;10.298;2023-01-26T03:32:41;96530.13;;;1.90;100.00
39141;BME280;24875;48.436;10.298;2023-01-26T03:35:09;96534.31;;;1.47;100.00
39141;BME280;24875;48.436;10.298;2023-01-26T03:37:39;96523.97;;;1.58;100.00
39141;BME280;24875;48.436;10.298;2023-01-26T03:40:11;96519.25;;;1.74;100.00
39141;BME280;24875;48.436;10.298;2023-01-26T03:42:56;96522.06;;;1.60;100.00
39141;BME280;24875;48.436;10.298;2023-01-26T03:45:40;96523.75;;;1.72;100.00
39141;BME280;24875;48.436;10.298;2023-01-26T03:48:25;96519.94;;;1.65;100.00
39141;BME280;24875;48.436;10.298;2023-01-26T03:51:09;96528.81;;;1.63;100.00
39141;BME280;24875;48.436;10.298;2023-01-26T03:53:53;96524.69;;;1.71;100.00
39141;BME280;24875;48.436;10.298;2023-01-26T03:56:37;96518.69;;;1.71;100.00
39141;BME280;24875;48.436;10.298;2023-01-26T03:59:06;96527.75;;;1.76;100.00
39141;BME280;24875;48.436;10.298;2023-01-26T04:01:40;96520.56;;;1.69;100.00
39141;BME280;24875;48.436;10.298;2023-01-26T04:04:22;96520.66;;;1.78;100.00
39141;BME280;24875;48.436;10.298;2023-01-26T04:07:06;96524.19;;;1.55;100.00
39141;BME280;24875;48.436;10.298;2023-01-26T04:09:50;96521.22;;;1.49;100.00
39141;BME280;24875;48.436;10.298;2023-01-26T04:12:17;96522.06;;;1.60;100.00
39141;BME280;24875;48.436;10.298;2023-01-26T04:14:43;96527.13;;;1.51;100.00
39141;BME280;24875;48.436;10.298;2023-01-26T04:17:28;96520.66;;;1.56;100.00
39141;BME280;24875;48.436;10.298;2023-01-26T04:20:13;96517.94;;;1.58;100.00
39141;BME280;24875;48.436;10.298;2023-01-26T04:22:57;96520.53;;;1.47;100.00
39141;BME280;24875;48.436;10.298;2023-01-26T04:25:24;96514.94;;;1.29;100.00
39141;BME280;24875;48.436;10.298;2023-01-26T04:27:50;96513.75;;;1.33;100.00
39141;BME280;24875;48.436;10.298;2023-01-26T04:30:17;96515.50;;;1.22;100.00
39141;BME280;24875;48.436;10.298;2023-01-26T04:32:44;96512.94;;;1.33;100.00
39141;BME280;24875;48.436;10.298;2023-01-26T04:35:13;96508.72;;;1.43;100.00
39141;BME280;24875;48.436;10.298;2023-01-26T04:37:39;96502.44;;;1.34;100.00
39141;BME280;24875;48.436;10.298;2023-01-26T04:40:07;96503.16;;;1.36;100.00
39141;BME280;24875;48.436;10.298;2023-01-26T04:42:34;96510.56;;;1.19;100.00
39141;BME280;24875;48.436;10.298;2023-01-26T04:45:00;96500.78;;;1.22;100.00
39141;BME280;24875;48.436;10.298;2023-01-26T04:47:27;96504.78;;;1.37;100.00
39141;BME280;24875;48.436;10.298;2023-01-26T04:49:53;96498.66;;;1.38;100.00
39141;BME280;24875;48.436;10.298;2023-01-26T04:52:21;96494.94;;;1.53;100.00
39141;BME280;24875;48.436;10.298;2023-01-26T04:54:47;96490.91;;;1.49;100.00
39141;BME280;24875;48.436;10.298;2023-01-26T04:57:14;96487.81;;;1.55;100.00
39141;BME280;24875;48.436;10.298;2023-01-26T04:59:40;96494.47;;;1.59;100.00
39141;BME280;24875;48.436;10.298;2023-01-26T05:02:07;96495.50;;;1.68;100.00
39141;BME280;24875;48.436;10.298;2023-01-26T05:04:34;96492.81;;;1.58;100.00
39141;BME280;24875;48.436;10.298;2023-01-26T05:07:01;96494.91;;;1.64;100.00
39141;BME280;24875;48.436;10.298;2023-01-26T05:09:28;96501.31;;;1.82;100.00
39141;BME280;24875;48.436;10.298;2023-01-26T05:11:55;96503.56;;;1.65;100.00
39141;BME280;24875;48.436;10.298;2023-01-26T05:14:42;96501.53;;;1.57;100.00
39141;BME280;24875;48.436;10.298;2023-01-26T05:17:08;96501.91;;;1.64;100.00
39141;BME280;24875;48.436;10.298;2023-01-26T05:19:35;96498.00;;;1.58;100.00
39141;BME280;24875;48.436;10.298;2023-01-26T05:22:01;96500.13;;;1.53;100.00
39141;BME280;24875;48.436;10.298;2023-01-26T05:24:29;96506.28;;;1.63;100.00
39141;BME280;24875;48.436;10.298;2023-01-26T05:26:56;96500.09;;;1.64;100.00
39141;BME280;24875;48.436;10.298;2023-01-26T05:29:36;96504.84;;;1.59;100.00
39141;BME280;24875;48.436;10.298;2023-01-26T05:32:03;96511.56;;;1.51;100.00
39141;BME280;24875;48.436;10.298;2023-01-26T05:34:29;96511.44;;;1.52;100.00
39141;BME280;24875;48.436;10.298;2023-01-26T05:36:55;96511.47;;;1.63;100.00
39141;BME280;24875;48.436;10.298;2023-01-26T05:39:22;96506.63;;;1.48;100.00
39141;BME280;24875;48.436;10.298;2023-01-26T05:41:50;96514.19;;;1.62;100.00
39141;BME280;24875;48.436;10.298;2023-01-26T05:44:16;96515.81;;;1.63;100.00
39141;BME280;24875;48.436;10.298;2023-01-26T05:46:43;96518.28;;;1.64;100.00
39141;BME280;24875;48.436;10.298;2023-01-26T05:49:09;96519.81;;;1.67;100.00
39141;BME280;24875;48.436;10.298;2023-01-26T05:51:35;96514.91;;;1.75;100.00
39141;BME280;24875;48.436;10.298;2023-01-26T05:54:02;96516.44;;;1.77;100.00
39141;BME280;24875;48.436;10.298;2023-01-26T05:56:29;96519.03;;;1.77;100.00
39141;BME280;24875;48.436;10.298;2023-01-26T05:58:57;96519.59;;;1.80;100.00
39141;BME280;24875;48.436;10.298;2023-01-26T06:01:23;96518.28;;;1.64;100.00
39141;BME280;24875;48.436;10.298;2023-01-26T06:03:50;96524.41;;;1.52;100.00
39141;BME280;24875;48.436;10.298;2023-01-26T06:06:16;96521.59;;;1.44;100.00
39141;BME280;24875;48.436;10.298;2023-01-26T06:08:43;96526.53;;;1.47;100.00
39141;BME280;24875;48.436;10.298;2023-01-26T06:11:09;96528.22;;;1.59;100.00
39141;BME280;24875;48.436;10.298;2023-01-26T06:13:35;96526.81;;;1.66;100.00
39141;BME280;24875;48.436;10.298;2023-01-26T06:16:04;96532.47;;;1.71;100.00
39141;BME280;24875;48.436;10.298;2023-01-26T06:18:30;96524.09;;;1.68;100.00
39141;BME280;24875;48.436;10.298;2023-01-26T06:20:58;96520.66;;;1.78;100.00
39141;BME280;24875;48.436;10.298;2023-01-26T06:23:25;96528.38;;;1.80;100.00
39141;BME280;24875;48.436;10.298;2023-01-26T06:25:52;96520.44;;;1.81;100.00
39141;BME280;24875;48.436;10.298;2023-01-26T06:28:18;96525.28;;;1.75;100.00
39141;BME280;24875;48.436;10.298;2023-01-26T06:30:45;96524.00;;;1.80;100.00
39141;BME280;24875;48.436;10.298;2023-01-26T06:33:13;96522.31;;;1.79;100.00
39141;BME280;24875;48.436;10.298;2023-01-26T06:35:39;96519.84;;;1.78;100.00
39141;BME280;24875;48.436;10.298;2023-01-26T06:38:06;96516.53;;;1.76;100.00
39141;BME280;24875;48.436;10.298;2023-01-26T06:40:32;96517.13;;;1.79;100.00
39141;BME280;24875;48.436;10.298;2023-01-26T06:42:59;96524.34;;;1.86;100.00
39141;BME280;24875;48.436;10.298;2023-01-26T06:45:25;96523.03;;;1.70;100.00
39141;BME280;24875;48.436;10.298;2023-01-26T06:47:51;96518.69;;;1.71;100.00
39141;BME280;24875;48.436;10.298;2023-01-26T06:50:22;96517.72;;;1.82;100.00
39141;BME280;24875;48.436;10.298;2023-01-26T06:52:51;96526.59;;;1.91;100.00
39141;BME280;24875;48.436;10.298;2023-01-26T06:55:23;96524.44;;;1.96;100.00
39141;BME280;24875;48.436;10.298;2023-01-26T06:57:52;96519.75;;;1.90;100.00
39141;BME280;24875;48.436;10.298;2023-01-26T07:00:19;96519.25;;;1.96;100.00
39141;BME280;24875;48.436;10.298;2023-01-26T07:02:46;96518.78;;;1.80;100.00
39141;BME280;24875;48.436;10.298;2023-01-26T07:05:12;96515.00;;;1.73;100.00
39141;BME280;24875;48.436;10.298;2023-01-26T07:07:40;96516.41;;;1.66;100.00
39141;BME280;24875;48.436;10.298;2023-01-26T07:10:08;96515.00;;;1.73;100.00
39141;BME280;24875;48.436;10.298;2023-01-26T07:12:38;96511.47;;;1.85;100.00
39141;BME280;24875;48.436;10.298;2023-01-26T07:15:05;96511.81;;;1.70;100.00
39141;BME280;24875;48.436;10.298;2023-01-26T07:17:32;96510.28;;;1.78;100.00
39141;BME280;24875;48.436;10.298;2023-01-26T07:19:58;96505.31;;;1.75;100.00
39141;BME280;24875;48.436;10.298;2023-01-26T07:22:25;96504.50;;;1.64;100.00
39141;BME280;24875;48.436;10.298;2023-01-26T07:24:53;96503.91;;;1.71;100.00
39141;BME280;24875;48.436;10.298;2023-01-26T07:27:19;96504.97;;;1.69;100.00
39141;BME280;24875;48.436;10.298;2023-01-26T07:29:46;96503.69;;;1.63;100.00
39141;BME280;24875;48.436;10.298;2023-01-26T07:32:12;96510.50;;;1.64;100.00
39141;BME280;24875;48.436;10.298;2023-01-26T07:34:38;96510.97;;;1.69;100.00
39141;BME280;24875;48.436;10.298;2023-01-26T07:37:05;96504.81;;;1.48;100.00
39141;BME280;24875;48.436;10.298;2023-01-26T07:39:31;96509.28;;;1.46;100.00
39141;BME280;24875;48.436;10.298;2023-01-26T07:41:59;96509.81;;;1.62;100.00
39141;BME280;24875;48.436;10.298;2023-01-26T07:44:26;96513.34;;;1.61;100.00
39141;BME280;24875;48.436;10.298;2023-01-26T07:46:52;96507.53;;;1.47;100.00
39141;BME280;24875;48.436;10.298;2023-01-26T07:49:19;96509.56;;;1.54;100.00
39141;BME280;24875;48.436;10.298;2023-01-26T07:51:45;96504.63;;;1.62;100.00
39141;BME280;24875;48.436;10.298;2023-01-26T07:54:12;96498.34;;;1.65;100.00
39141;BME280;24875;48.436;10.298;2023-01-26T07:56:38;96497.06;;;1.70;100.00
39141;BME280;24875;48.436;10.298;2023-01-26T07:59:06;96497.41;;;1.66;100.00
39141;BME280;24875;48.436;10.298;2023-01-26T08:01:32;96499.16;;;1.65;100.00
39141;BME280;24875;48.436;10.298;2023-01-26T08:03:59;96503.19;;;1.58;100.00
39141;BME280;24875;48.436;10.298;2023-01-26T08:06:25;96496.44;;;1.67;100.00
39141;BME280;24875;48.436;10.298;2023-01-26T08:08:52;96494.13;;;1.75;100.00
39141;BME280;24875;48.436;10.298;2023-01-26T08:11:19;96493.63;;;1.70;100.00
39141;BME280;24875;48.436;10.298;2023-01-26T08:13:47;96496.94;;;1.82;100.00
39141;BME280;24875;48.436;10.298;2023-01-26T08:16:15;96494.22;;;1.84;100.00
39141;BME280;24875;48.436;10.298;2023-01-26T08:18:43;96507.81;;;1.87;100.00
39141;BME280;24875;48.436;10.298;2023-01-26T08:21:10;96498.03;;;1.91;100.00
39141;BME280;24875;48.436;10.298;2023-01-26T08:23:37;96493.38;;;1.94;100.00
39141;BME280;24875;48.436;10.298;2023-01-26T08:26:05;96494.44;;;1.92;100.00
39141;BME280;24875;48.436;10.298;2023-01-26T08:28:32;96490.56;;;1.86;100.00
39141;BME280;24875;48.436;10.298;2023-01-26T08:31:02;96487.97;;;1.86;100.00
39141;BME280;24875;48.436;10.298;2023-01-26T08:33:31;96488.31;;;1.71;100.00
39141;BME280;24875;48.436;10.298;2023-01-26T08:36:00;96487.13;;;1.64;100.00
39141;BME280;24875;48.436;10.298;2023-01-26T08:38:28;96489.97;;;1.50;100.00
39141;BME280;24875;48.436;10.298;2023-01-26T08:40:55;96486.78;;;1.58;100.00
39141;BME280;24875;48.436;10.298;2023-01-26T08:43:21;96488.66;;;1.67;100.00
39141;BME280;24875;48.436;10.298;2023-01-26T08:45:48;96493.75;;;1.68;100.00
39141;BME280;24875;48.436;10.298;2023-01-26T08:48:14;96497.66;;;1.74;100.00
39141;BME280;24875;48.436;10.298;2023-01-26T08:50:42;96489.28;;;1.81;100.00
39141;BME280;24875;48.436;10.298;2023-01-26T08:53:08;96486.78;;;1.69;100.00
39141;BME280;24875;48.436;10.298;2023-01-26T08:55:35;96487.50;;;1.60;100.00
39141;BME280;24875;48.436;10.298;2023-01-26T08:58:02;96493.28;;;1.63;100.00
39141;BME280;24875;48.436;10.298;2023-01-26T09:00:29;96489.63;;;1.66;100.00
39141;BME280;24875;48.436;10.298;2023-01-26T09:02:59;96494.44;;;1.48;100.00
39141;BME280;24875;48.436;10.298;2023-01-26T09:05:26;96482.84;;;1.30;100.00
39141;BME280;24875;48.436;10.298;2023-01-26T09:07:54;96475.56;;;1.57;100.00
39141;BME280;24875;48.436;10.298;2023-01-26T09:10:21;96473.91;;;1.56;100.00
39141;BME280;24875;48.436;10.298;2023-01-26T09:12:47;96471.94;;;1.71;100.00
39141;BME280;24875;48.436;10.298;2023-01-26T09:15:14;96474.88;;;1.77;100.00
39141;BME280;24875;48.436;10.298;2023-01-26T09:17:40;96480.16;;;1.86;100.00
39141;BME280;24875;48.436;10.298;2023-01-26T09:20:08;96476.28;;;1.81;100.00
39141;BME280;24875;48.436;10.298;2023-01-26T09:22:35;96479.84;;;1.91;100.00
39141;BME280;24875;48.436;10.298;2023-01-26T09:25:03;96481.47;;;1.92;100.00
39141;BME280;24875;48.436;10.298;2023-01-26T09:27:30;96481.13;;;1.85;100.00
39141;BME280;24875;48.436;10.298;2023-01-26T09:29:56;96479.81;;;1.80;100.00
39141;BME280;24875;48.436;10.298;2023-01-26T09:32:24;96483.59;;;1.87;100.00
39141;BME280;24875;48.436;10.298;2023-01-26T09:34:50;96481.00;;;1.87;100.00
39141;BME280;24875;48.436;10.298;2023-01-26T09:37:17;96491.28;;;1.88;100.00
39141;BME280;24875;48.436;10.298;2023-01-26T09:39:43;96483.69;;;2.07;100.00
39141;BME280;24875;48.436;10.298;2023-01-26T09:42:22;96483.47;;;2.10;100.00
39141;BME280;24875;48.436;10.298;2023-01-26T09:44:59;96481.91;;;2.19;100.00
39141;BME280;24875;48.436;10.298;2023-01-26T09:47:33;96477.16;;;2.24;100.00
39141;BME280;24875;48.436;10.298;2023-01-26T09:50:02;96479.53;;;2.27;99.21
39141;BME280;24875;48.436;10.298;2023-01-26T09:52:33;96482.63;;;2.21;99.85
39141;BME280;24875;48.436;10.298;2023-01-26T09:55:03;96491.38;;;2.09;100.00
39141;BME280;24875;48.436;10.298;2023-01-26T09:57:36;96481.44;;;2.14;97.90
39141;BME280;24875;48.436;10.298;2023-01-26T10:00:06;96486.63;;;2.25;99.93
39141;BME280;24875;48.436;10.298;2023-01-26T10:02:52;96490.88;;;2.26;98.84
39141;BME280;24875;48.436;10.298;2023-01-26T10:05:29;96476.69;;;2.19;98.11
39141;BME280;24875;48.436;10.298;2023-01-26T10:07:57;96482.50;;;2.11;98.47
39141;BME280;24875;48.436;10.298;2023-01-26T10:10:26;96480.09;;;2.30;98.10
39141;BME280;24875;48.436;10.298;2023-01-26T10:12:56;96490.97;;;2.35;97.66
39141;BME280;24875;48.436;10.298;2023-01-26T10:15:29;96489.69;;;2.19;97.26
39141;BME280;24875;48.436;10.298;2023-01-26T10:17:59;96483.81;;;2.17;96.97
39141;BME280;24875;48.436;10.298;2023-01-26T10:20:27;96479.78;;;2.24;96.59
39141;BME280;24875;48.436;10.298;2023-01-26T10:23:00;96472.56;;;2.27;97.59
39141;BME280;24875;48.436;10.298;2023-01-26T10:25:30;96485.47;;;2.18;97.23
39141;BME280;24875;48.436;10.298;2023-01-26T10:28:01;96484.03;;;2.25;98.33
39141;BME280;24875;48.436;10.298;2023-01-26T10:30:30;96484.41;;;2.09;98.58
39141;BME280;24875;48.436;10.298;2023-01-26T10:32:57;96483.09;;;2.15;100.00
39141;BME280;24875;48.436;10.298;2023-01-26T10:35:24;96480.84;;;2.21;99.53
39141;BME280;24875;48.436;10.298;2023-01-26T10:37:51;96489.22;;;2.25;99.77
39141;BME280;24875;48.436;10.298;2023-01-26T10:40:18;96481.19;;;2.28;99.66
39141;BME280;24875;48.436;10.298;2023-01-26T10:42:54;96484.75;;;2.05;99.24
39141;BME280;24875;48.436;10.298;2023-01-26T10:45:29;96476.63;;;1.87;100.00
39141;BME280;24875;48.436;10.298;2023-01-26T10:48:16;96474.28;;;1.74;100.00
39141;BME280;24875;48.436;10.298;2023-01-26T10:50:43;96468.34;;;1.72;100.00
39141;BME280;24875;48.436;10.298;2023-01-26T10:53:14;96473.91;;;1.78;100.00
39141;BME280;24875;48.436;10.298;2023-01-26T10:55:43;96478.41;;;1.76;100.00
39141;BME280;24875;48.436;10.298;2023-01-26T10:58:48;96473.09;;;1.88;100.00
39141;BME280;24875;48.436;10.298;2023-01-26T11:01:17;96472.38;;;1.76;100.00
39141;BME280;24875;48.436;10.298;2023-01-26T11:04:03;96479.00;;;1.90;99.32
39141;BME280;24875;48.436;10.298;2023-01-26T11:06:31;96478.38;;;1.87;100.00
39141;BME280;24875;48.436;10.298;2023-01-26T11:09:09;96471.75;;;2.05;99.21
39141;BME280;24875;48.436;10.298;2023-01-26T11:11:36;96475.06;;;1.96;97.96
39141;BME280;24875;48.436;10.298;2023-01-26T11:14:10;96479.69;;;2.14;96.23
39141;BME280;24875;48.436;10.298;2023-01-26T11:16:39;96471.19;;;2.01;97.43
39141;BME280;24875;48.436;10.298;2023-01-26T11:19:12;96470.34;;;2.01;98.46
39141;BME280;24875;48.436;10.298;2023-01-26T11:21:40;96470.34;;;2.01;97.46
39141;BME280;24875;48.436;10.298;2023-01-26T11:24:12;96466.25;;;1.77;99.42
39141;BME280;24875;48.436;10.298;2023-01-26T11:26:56;96468.00;;;1.98;98.92
39141;BME280;24875;48.436;10.298;2023-01-26T11:29:47;96459.97;;;1.90;97.22
39141;BME280;24875;48.436;10.298;2023-01-26T11:32:24;96460.94;;;1.89;97.31
39141;BME280;24875;48.436;10.298;2023-01-26T11:35:01;96467.06;;;1.99;97.83
39141;BME280;24875;48.436;10.298;2023-01-26T11:37:37;96461.16;;;1.97;95.50
39141;BME280;24875;48.436;10.298;2023-01-26T11:40:18;96452.41;;;1.98;96.20
39141;BME280;24875;48.436;10.298;2023-01-26T11:42:57;96461.19;;;1.86;96.23
39141;BME280;24875;48.436;10.298;2023-01-26T11:45:33;96448.75;;;1.89;96.66
39141;BME280;24875;48.436;10.298;2023-01-26T11:48:13;96450.16;;;2.04;98.02
39141;BME280;24875;48.436;10.298;2023-01-26T11:50:50;96451.69;;;2.07;96.83
39141;BME280;24875;48.436;10.298;2023-01-26T11:53:37;96451.69;;;2.18;96.37
39141;BME280;24875;48.436;10.298;2023-01-26T11:56:18;96451.44;;;2.21;96.34
39141;BME280;24875;48.436;10.298;2023-01-26T11:58:52;96444.72;;;2.07;95.90
39141;BME280;24875;48.436;10.298;2023-01-26T12:01:24;96433.75;;;1.93;95.65
39141;BME280;24875;48.436;10.298;2023-01-26T12:03:55;96435.75;;;2.00;95.11
39141;BME280;24875;48.436;10.298;2023-01-26T12:06:27;96428.47;;;1.73;96.36
39141;BME280;24875;48.436;10.298;2023-01-26T12:08:59;96434.47;;;1.73;98.91
39141;BME280;24875;48.436;10.298;2023-01-26T12:11:32;96430.34;;;1.81;97.46
39141;BME280;24875;48.436;10.298;2023-01-26T12:14:05;96428.44;;;1.94;96.47
39141;BME280;24875;48.436;10.298;2023-01-26T12:16:45;96428.16;;;2.08;95.87
39141;BME280;24875;48.436;10.298;2023-01-26T12:19:33;96421.06;;;2.21;95.51
39141;BME280;24875;48.436;10.298;2023-01-26T12:22:10;96425.50;;;1.88;96.28
39141;BME280;24875;48.436;10.298;2023-01-26T12:24:41;96423.38;;;1.38;99.45
39141;BME280;24875;48.436;10.298;2023-01-26T12:27:15;96421.25;;;1.65;99.33
39141;BME280;24875;48.436;10.298;2023-01-26T12:29:47;96424.34;;;1.70;99.60
39141;BME280;24875;48.436;10.298;2023-01-26T12:32:16;96418.41;;;1.79;98.96
39141;BME280;24875;48.436;10.298;2023-01-26T12:34:44;96416.53;;;1.81;97.29
39141;BME280;24875;48.436;10.298;2023-01-26T12:37:27;96418.66;;;1.76;97.72
39141;BME280;24875;48.436;10.298;2023-01-26T12:40:03;96410.19;;;1.52;99.89
39141;BME280;24875;48.436;10.298;2023-01-26T12:42:41;96400.38;;;1.56;98.72
39141;BME280;24875;48.436;10.298;2023-01-26T12:45:14;96406.63;;;1.75;97.81
39141;BME280;24875;48.436;10.298;2023-01-26T12:47:46;96401.41;;;1.86;97.51
39141;BME280;24875;48.436;10.298;2023-01-26T12:50:23;96392.91;;;1.95;98.08
39141;BME280;24875;48.436;10.298;2023-01-26T12:52:54;96391.56;;;2.00;98.42
39141;BME280;24875;48.436;10.298;2023-01-26T12:55:25;96378.72;;;1.99;98.88
39141;BME280;24875;48.436;10.298;2023-01-26T12:57:57;96385.53;;;2.11;98.01
39141;BME280;24875;48.436;10.298;2023-01-26T13:00:27;96379.72;;;2.18;98.14
39141;BME280;24875;48.436;10.298;2023-01-26T13:02:57;96387.47;;;1.87;99.28
39141;BME280;24875;48.436;10.298;2023-01-26T13:05:29;96388.00;;;1.48;100.00
39141;BME280;24875;48.436;10.298;2023-01-26T13:07:56;96385.63;;;1.34;100.00